sensor_id;sensor_type;location;lat;lon;timestamp;P1;durP1;ratioP1;P2;durP2;ratioP2
63953;SDS011;50128;52.094;5.232;2023-04-25T00:02:24;15.4;;;5.4;;
63953;SDS011;50128;52.094;5.232;2023-04-25T00:04:00;15.9;;;4.8;;
63953;SDS011;50128;52.094;5.232;2023-04-25T00:05:36;17.91;;;6.4;;
63953;SDS011;50128;52.094;5.232;2023-04-25T00:08:49;16.5;;;5.4;;
63953;SDS011;50128;52.094;5.232;2023-04-25T00:10:25;19.7;;;5.8;;
63953;SDS011;50128;52.094;5.232;2023-04-25T00:12:01;16.8;;;5.6;;
63953;SDS011;50128;52.094;5.232;2023-04-25T00:15:14;22.9;;;5.8;;
63953;SDS011;50128;52.094;5.232;2023-04-25T00:16:50;18.11;;;5.3;;
63953;SDS011;50128;52.094;5.232;2023-04-25T00:18:26;19.2;;;5.8;;
63953;SDS011;50128;52.094;5.232;2023-04-25T00:20:02;17.5;;;6.0;;
63953;SDS011;50128;52.094;5.232;2023-04-25T00:23:15;17.91;;;5.9;;
63953;SDS011;50128;52.094;5.232;2023-04-25T00:24:51;14.8;;;4.8;;
63953;SDS011;50128;52.094;5.232;2023-04-25T00:26:27;15.7;;;5.5;;
63953;SDS011;50128;52.094;5.232;2023-04-25T00:29:41;18.2;;;5.6;;
63953;SDS011;50128;52.094;5.232;2023-04-25T00:31:17;19.8;;;5.8;;
63953;SDS011;50128;52.094;5.232;2023-04-25T00:32:53;19.61;;;5.5;;
63953;SDS011;50128;52.094;5.232;2023-04-25T00:36:06;18.3;;;5.6;;
63953;SDS011;50128;52.094;5.232;2023-04-25T00:37:42;16.7;;;5.11;;
63953;SDS011;50128;52.094;5.232;2023-04-25T00:39:19;16.0;;;4.8;;
63953;SDS011;50128;52.094;5.232;2023-04-25T00:40:56;15.4;;;5.0;;
63953;SDS011;50128;52.094;5.232;2023-04-25T00:44:08;15.1;;;4.8;;
63953;SDS011;50128;52.094;5.232;2023-04-25T00:45:45;17.61;;;5.0;;
63953;SDS011;50128;52.094;5.232;2023-04-25T00:47:23;17.11;;;5.11;;
63953;SDS011;50128;52.094;5.232;2023-04-25T00:50:36;17.2;;;5.5;;
63953;SDS011;50128;52.094;5.232;2023-04-25T00:52:13;16.11;;;4.91;;
63953;SDS011;50128;52.094;5.232;2023-04-25T00:53:50;15.4;;;5.2;;
63953;SDS011;50128;52.094;5.232;2023-04-25T00:57:03;16.7;;;5.11;;
63953;SDS011;50128;52.094;5.232;2023-04-25T00:58:39;16.7;;;5.4;;
63953;SDS011;50128;52.094;5.232;2023-04-25T01:00:17;15.9;;;5.5;;
63953;SDS011;50128;52.094;5.232;2023-04-25T01:01:53;17.61;;;5.5;;
63953;SDS011;50128;52.094;5.232;2023-04-25T01:05:09;20.3;;;5.8;;
63953;SDS011;50128;52.094;5.232;2023-04-25T01:06:45;13.7;;;5.2;;
63953;SDS011;50128;52.094;5.232;2023-04-25T01:08:21;18.2;;;5.4;;
63953;SDS011;50128;52.094;5.232;2023-04-25T01:11:35;18.11;;;5.8;;
63953;SDS011;50128;52.094;5.232;2023-04-25T01:13:11;18.2;;;5.8;;
63953;SDS011;50128;52.094;5.232;2023-04-25T01:14:47;14.4;;;5.11;;
63953;SDS011;50128;52.094;5.232;2023-04-25T01:18:00;14.4;;;5.11;;
63953;SDS011;50128;52.094;5.232;2023-04-25T01:19:36;17.61;;;5.8;;
63953;SDS011;50128;52.094;5.232;2023-04-25T01:22:49;16.9;;;5.4;;
63953;SDS011;50128;52.094;5.232;2023-04-25T01:26:03;16.4;;;5.4;;
63953;SDS011;50128;52.094;5.232;2023-04-25T01:27:41;16.0;;;5.3;;
63953;SDS011;50128;52.094;5.232;2023-04-25T01:29:17;15.3;;;5.11;;
63953;SDS011;50128;52.094;5.232;2023-04-25T01:32:32;20.9;;;6.5;;
63953;SDS011;50128;52.094;5.232;2023-04-25T01:34:09;17.7;;;6.0;;
63953;SDS011;50128;52.094;5.232;2023-04-25T01:35:45;18.11;;;6.1;;
63953;SDS011;50128;52.094;5.232;2023-04-25T01:37:22;18.8;;;5.8;;
63953;SDS011;50128;52.094;5.232;2023-04-25T01:40:36;15.7;;;5.3;;
63953;SDS011;50128;52.094;5.232;2023-04-25T01:42:15;13.8;;;5.5;;
63953;SDS011;50128;52.094;5.232;2023-04-25T01:43:54;16.7;;;5.9;;
63953;SDS011;50128;52.094;5.232;2023-04-25T01:47:06;16.11;;;5.5;;
63953;SDS011;50128;52.094;5.232;2023-04-25T01:48:42;17.5;;;5.5;;
63953;SDS011;50128;52.094;5.232;2023-04-25T01:50:18;18.5;;;6.2;;
63953;SDS011;50128;52.094;5.232;2023-04-25T01:53:30;19.11;;;6.3;;
63953;SDS011;50128;52.094;5.232;2023-04-25T01:55:07;19.41;;;6.3;;
63953;SDS011;50128;52.094;5.232;2023-04-25T01:56:49;19.61;;;5.7;;
63953;SDS011;50128;52.094;5.232;2023-04-25T01:58:26;16.4;;;5.5;;
63953;SDS011;50128;52.094;5.232;2023-04-25T02:01:42;16.3;;;6.3;;
63953;SDS011;50128;52.094;5.232;2023-04-25T02:03:18;15.1;;;5.7;;
63953;SDS011;50128;52.094;5.232;2023-04-25T02:04:54;16.9;;;5.7;;
63953;SDS011;50128;52.094;5.232;2023-04-25T02:08:07;17.0;;;5.6;;
63953;SDS011;50128;52.094;5.232;2023-04-25T02:09:45;14.4;;;5.6;;
63953;SDS011;50128;52.094;5.232;2023-04-25T02:11:21;18.7;;;6.2;;
63953;SDS011;50128;52.094;5.232;2023-04-25T02:12:57;16.8;;;5.9;;
63953;SDS011;50128;52.094;5.232;2023-04-25T02:16:09;14.8;;;6.0;;
63953;SDS011;50128;52.094;5.232;2023-04-25T02:17:45;17.7;;;5.6;;
63953;SDS011;50128;52.094;5.232;2023-04-25T02:19:21;18.3;;;5.9;;
63953;SDS011;50128;52.094;5.232;2023-04-25T02:22:35;16.7;;;5.7;;
63953;SDS011;50128;52.094;5.232;2023-04-25T02:24:11;16.11;;;6.1;;
63953;SDS011;50128;52.094;5.232;2023-04-25T02:25:47;17.2;;;6.3;;
63953;SDS011;50128;52.094;5.232;2023-04-25T02:29:00;17.5;;;6.0;;
63953;SDS011;50128;52.094;5.232;2023-04-25T02:30:36;15.1;;;6.3;;
63953;SDS011;50128;52.094;5.232;2023-04-25T02:32:12;14.8;;;6.1;;
63953;SDS011;50128;52.094;5.232;2023-04-25T02:33:49;14.4;;;5.4;;
63953;SDS011;50128;52.094;5.232;2023-04-25T02:37:02;20.9;;;5.8;;
63953;SDS011;50128;52.094;5.232;2023-04-25T02:38:38;17.5;;;5.8;;
63953;SDS011;50128;52.094;5.232;2023-04-25T02:40:15;14.8;;;6.3;;
63953;SDS011;50128;52.094;5.232;2023-04-25T02:43:27;17.91;;;6.8;;
63953;SDS011;50128;52.094;5.232;2023-04-25T02:45:04;15.5;;;5.9;;
63953;SDS011;50128;52.094;5.232;2023-04-25T02:46:40;16.61;;;6.1;;
63953;SDS011;50128;52.094;5.232;2023-04-25T02:49:53;14.4;;;5.3;;
63953;SDS011;50128;52.094;5.232;2023-04-25T02:51:29;16.7;;;5.6;;
63953;SDS011;50128;52.094;5.232;2023-04-25T02:53:05;15.0;;;5.6;;
63953;SDS011;50128;52.094;5.232;2023-04-25T02:56:17;13.5;;;5.3;;
63953;SDS011;50128;52.094;5.232;2023-04-25T02:57:53;17.8;;;6.0;;
63953;SDS011;50128;52.094;5.232;2023-04-25T02:59:30;14.4;;;5.4;;
63953;SDS011;50128;52.094;5.232;2023-04-25T03:01:06;15.0;;;5.8;;
63953;SDS011;50128;52.094;5.232;2023-04-25T03:04:18;16.9;;;5.6;;
63953;SDS011;50128;52.094;5.232;2023-04-25T03:05:54;14.7;;;6.3;;
63953;SDS011;50128;52.094;5.232;2023-04-25T03:07:30;16.9;;;6.3;;
63953;SDS011;50128;52.094;5.232;2023-04-25T03:10:42;13.6;;;5.2;;
63953;SDS011;50128;52.094;5.232;2023-04-25T03:12:20;12.7;;;5.11;;
63953;SDS011;50128;52.094;5.232;2023-04-25T03:13:56;16.4;;;5.7;;
63953;SDS011;50128;52.094;5.232;2023-04-25T03:17:08;15.9;;;5.6;;
63953;SDS011;50128;52.094;5.232;2023-04-25T03:18:44;15.5;;;5.8;;
63953;SDS011;50128;52.094;5.232;2023-04-25T03:20:20;12.9;;;5.7;;
63953;SDS011;50128;52.094;5.232;2023-04-25T03:21:56;17.5;;;5.7;;
63953;SDS011;50128;52.094;5.232;2023-04-25T03:25:09;16.5;;;6.3;;
63953;SDS011;50128;52.094;5.232;2023-04-25T03:26:45;16.5;;;6.3;;
63953;SDS011;50128;52.094;5.232;2023-04-25T03:28:21;17.0;;;6.0;;
63953;SDS011;50128;52.094;5.232;2023-04-25T03:31:34;13.3;;;5.3;;
63953;SDS011;50128;52.094;5.232;2023-04-25T03:33:10;16.7;;;6.2;;
63953;SDS011;50128;52.094;5.232;2023-04-25T03:34:46;16.9;;;6.2;;
63953;SDS011;50128;52.094;5.232;2023-04-25T03:37:58;17.41;;;5.5;;
63953;SDS011;50128;52.094;5.232;2023-04-25T03:39:35;13.0;;;4.7;;
63953;SDS011;50128;52.094;5.232;2023-04-25T03:41:12;13.4;;;4.1;;
63953;SDS011;50128;52.094;5.232;2023-04-25T03:44:24;11.9;;;4.2;;
63953;SDS011;50128;52.094;5.232;2023-04-25T03:46:00;11.1;;;3.3;;
63953;SDS011;50128;52.094;5.232;2023-04-25T03:47:36;11.8;;;4.0;;
63953;SDS011;50128;52.094;5.232;2023-04-25T03:49:12;11.8;;;3.2;;
63953;SDS011;50128;52.094;5.232;2023-04-25T03:52:25;10.3;;;3.5;;
63953;SDS011;50128;52.094;5.232;2023-04-25T03:54:01;12.1;;;3.5;;
63953;SDS011;50128;52.094;5.232;2023-04-25T03:55:37;8.9;;;3.3;;
63953;SDS011;50128;52.094;5.232;2023-04-25T03:58:49;9.5;;;3.0;;
63953;SDS011;50128;52.094;5.232;2023-04-25T04:00:25;11.2;;;3.9;;
63953;SDS011;50128;52.094;5.232;2023-04-25T04:02:01;10.5;;;3.3;;
63953;SDS011;50128;52.094;5.232;2023-04-25T04:05:14;9.9;;;3.1;;
63953;SDS011;50128;52.094;5.232;2023-04-25T04:06:50;9.0;;;3.0;;
63953;SDS011;50128;52.094;5.232;2023-04-25T04:08:26;9.81;;;3.3;;
63953;SDS011;50128;52.094;5.232;2023-04-25T04:11:38;11.0;;;3.1;;
63953;SDS011;50128;52.094;5.232;2023-04-25T04:13:14;9.5;;;3.2;;
63953;SDS011;50128;52.094;5.232;2023-04-25T04:14:50;13.5;;;3.4;;
63953;SDS011;50128;52.094;5.232;2023-04-25T04:16:26;9.21;;;3.0;;
63953;SDS011;50128;52.094;5.232;2023-04-25T04:19:39;10.5;;;3.2;;
63953;SDS011;50128;52.094;5.232;2023-04-25T04:53:22;9.5;;;2.7;;
63953;SDS011;50128;52.094;5.232;2023-04-25T04:54:58;12.1;;;3.2;;
63953;SDS011;50128;52.094;5.232;2023-04-25T04:56:34;12.9;;;3.5;;
63953;SDS011;50128;52.094;5.232;2023-04-25T04:58:11;15.1;;;3.5;;
63953;SDS011;50128;52.094;5.232;2023-04-25T05:01:23;8.9;;;2.5;;
63953;SDS011;50128;52.094;5.232;2023-04-25T05:03:00;8.81;;;2.6;;
63953;SDS011;50128;52.094;5.232;2023-04-25T05:04:36;10.0;;;3.0;;
63953;SDS011;50128;52.094;5.232;2023-04-25T05:07:48;9.81;;;2.8;;
63953;SDS011;50128;52.094;5.232;2023-04-25T05:09:25;9.5;;;2.8;;
63953;SDS011;50128;52.094;5.232;2023-04-25T05:11:02;8.9;;;2.7;;
63953;SDS011;50128;52.094;5.232;2023-04-25T05:14:14;7.4;;;2.1;;
63953;SDS011;50128;52.094;5.232;2023-04-25T05:15:50;9.21;;;2.6;;
63953;SDS011;50128;52.094;5.232;2023-04-25T05:17:26;10.21;;;2.7;;
63953;SDS011;50128;52.094;5.232;2023-04-25T05:20:39;8.0;;;3.0;;
63953;SDS011;50128;52.094;5.232;2023-04-25T05:22:15;11.2;;;2.8;;
63953;SDS011;50128;52.094;5.232;2023-04-25T05:23:51;11.2;;;2.8;;
63953;SDS011;50128;52.094;5.232;2023-04-25T05:25:27;10.7;;;2.8;;
63953;SDS011;50128;52.094;5.232;2023-04-25T05:28:39;8.81;;;2.6;;
63953;SDS011;50128;52.094;5.232;2023-04-25T05:30:15;8.0;;;2.7;;
63953;SDS011;50128;52.094;5.232;2023-04-25T05:31:51;8.71;;;2.6;;
63953;SDS011;50128;52.094;5.232;2023-04-25T05:35:04;8.2;;;2.4;;
63953;SDS011;50128;52.094;5.232;2023-04-25T05:36:41;10.6;;;2.7;;
63953;SDS011;50128;52.094;5.232;2023-04-25T05:38:17;8.6;;;2.6;;
63953;SDS011;50128;52.094;5.232;2023-04-25T05:41:29;7.3;;;2.0;;
63953;SDS011;50128;52.094;5.232;2023-04-25T05:43:05;7.0;;;2.1;;
63953;SDS011;50128;52.094;5.232;2023-04-25T05:44:42;10.0;;;2.31;;
63953;SDS011;50128;52.094;5.232;2023-04-25T05:46:18;8.0;;;2.31;;
63953;SDS011;50128;52.094;5.232;2023-04-25T05:49:30;8.9;;;2.5;;
63953;SDS011;50128;52.094;5.232;2023-04-25T05:51:06;7.9;;;2.1;;
63953;SDS011;50128;52.094;5.232;2023-04-25T05:52:43;8.5;;;2.31;;
63953;SDS011;50128;52.094;5.232;2023-04-25T05:55:55;7.3;;;2.5;;
63953;SDS011;50128;52.094;5.232;2023-04-25T05:57:31;7.9;;;2.0;;
63953;SDS011;50128;52.094;5.232;2023-04-25T05:59:07;9.6;;;2.5;;
63953;SDS011;50128;52.094;5.232;2023-04-25T06:02:20;6.5;;;1.9;;
63953;SDS011;50128;52.094;5.232;2023-04-25T06:03:56;8.1;;;2.21;;
63953;SDS011;50128;52.094;5.232;2023-04-25T06:05:33;11.5;;;2.4;;
63953;SDS011;50128;52.094;5.232;2023-04-25T06:08:45;7.9;;;2.31;;
63953;SDS011;50128;52.094;5.232;2023-04-25T06:10:21;9.71;;;2.6;;
63953;SDS011;50128;52.094;5.232;2023-04-25T06:11:57;7.4;;;2.0;;
63953;SDS011;50128;52.094;5.232;2023-04-25T06:13:33;9.21;;;2.4;;
63953;SDS011;50128;52.094;5.232;2023-04-25T06:16:46;8.9;;;2.4;;
63953;SDS011;50128;52.094;5.232;2023-04-25T06:18:22;10.8;;;2.31;;
63953;SDS011;50128;52.094;5.232;2023-04-25T06:19:58;10.21;;;2.4;;
63953;SDS011;50128;52.094;5.232;2023-04-25T06:23:10;11.3;;;2.5;;
63953;SDS011;50128;52.094;5.232;2023-04-25T06:24:47;11.3;;;2.5;;
63953;SDS011;50128;52.094;5.232;2023-04-25T06:26:23;9.1;;;2.31;;
63953;SDS011;50128;52.094;5.232;2023-04-25T06:29:36;11.0;;;2.6;;
63953;SDS011;50128;52.094;5.232;2023-04-25T06:31:12;9.81;;;2.7;;
63953;SDS011;50128;52.094;5.232;2023-04-25T06:32:48;9.81;;;2.31;;
63953;SDS011;50128;52.094;5.232;2023-04-25T06:34:24;10.4;;;2.5;;
63953;SDS011;50128;52.094;5.232;2023-04-25T06:37:36;11.6;;;2.8;;
63953;SDS011;50128;52.094;5.232;2023-04-25T06:39:12;10.7;;;2.6;;
63953;SDS011;50128;52.094;5.232;2023-04-25T06:40:49;10.3;;;2.5;;
63953;SDS011;50128;52.094;5.232;2023-04-25T06:44:01;10.1;;;2.5;;
63953;SDS011;50128;52.094;5.232;2023-04-25T06:45:37;9.0;;;2.6;;
63953;SDS011;50128;52.094;5.232;2023-04-25T06:47:13;10.3;;;2.4;;
63953;SDS011;50128;52.094;5.232;2023-04-25T06:50:26;7.1;;;2.31;;
63953;SDS011;50128;52.094;5.232;2023-04-25T06:52:02;8.4;;;2.31;;
63953;SDS011;50128;52.094;5.232;2023-04-25T06:53:39;10.7;;;2.5;;
63953;SDS011;50128;52.094;5.232;2023-04-25T06:56:52;6.5;;;1.8;;
63953;SDS011;50128;52.094;5.232;2023-04-25T06:58:28;9.81;;;2.5;;
63953;SDS011;50128;52.094;5.232;2023-04-25T07:00:05;9.1;;;2.4;;
63953;SDS011;50128;52.094;5.232;2023-04-25T07:01:43;7.5;;;2.1;;
63953;SDS011;50128;52.094;5.232;2023-04-25T07:04:55;10.1;;;2.31;;
63953;SDS011;50128;52.094;5.232;2023-04-25T07:06:33;10.3;;;2.31;;
63953;SDS011;50128;52.094;5.232;2023-04-25T07:08:09;11.0;;;2.4;;
63953;SDS011;50128;52.094;5.232;2023-04-25T07:11:21;6.7;;;2.0;;
63953;SDS011;50128;52.094;5.232;2023-04-25T07:12:57;10.4;;;2.5;;
63953;SDS011;50128;52.094;5.232;2023-04-25T07:14:33;9.71;;;2.7;;
63953;SDS011;50128;52.094;5.232;2023-04-25T07:17:46;8.9;;;2.4;;
63953;SDS011;50128;52.094;5.232;2023-04-25T07:19:22;11.2;;;2.7;;
63953;SDS011;50128;52.094;5.232;2023-04-25T07:20:58;10.5;;;2.5;;
63953;SDS011;50128;52.094;5.232;2023-04-25T07:22:34;9.5;;;2.6;;
63953;SDS011;50128;52.094;5.232;2023-04-25T07:25:46;9.5;;;2.4;;
63953;SDS011;50128;52.094;5.232;2023-04-25T07:27:22;11.2;;;2.31;;
63953;SDS011;50128;52.094;5.232;2023-04-25T07:28:58;10.4;;;2.7;;
63953;SDS011;50128;52.094;5.232;2023-04-25T07:32:11;10.0;;;2.4;;
63953;SDS011;50128;52.094;5.232;2023-04-25T07:33:47;10.5;;;2.4;;
63953;SDS011;50128;52.094;5.232;2023-04-25T07:35:23;9.71;;;2.4;;
63953;SDS011;50128;52.094;5.232;2023-04-25T07:38:35;7.9;;;2.1;;
63953;SDS011;50128;52.094;5.232;2023-04-25T07:40:12;8.4;;;2.1;;
63953;SDS011;50128;52.094;5.232;2023-04-25T07:41:48;8.81;;;2.1;;
63953;SDS011;50128;52.094;5.232;2023-04-25T07:43:25;8.2;;;2.31;;
63953;SDS011;50128;52.094;5.232;2023-04-25T07:46:37;9.9;;;1.9;;
63953;SDS011;50128;52.094;5.232;2023-04-25T07:48:16;8.1;;;2.21;;
63953;SDS011;50128;52.094;5.232;2023-04-25T07:49:53;8.9;;;2.31;;
63953;SDS011;50128;52.094;5.232;2023-04-25T07:53:05;10.4;;;2.21;;
63953;SDS011;50128;52.094;5.232;2023-04-25T07:54:41;10.7;;;2.8;;
63953;SDS011;50128;52.094;5.232;2023-04-25T07:56:18;9.21;;;2.0;;
63953;SDS011;50128;52.094;5.232;2023-04-25T07:59:30;9.1;;;2.31;;
63953;SDS011;50128;52.094;5.232;2023-04-25T08:01:06;8.4;;;1.9;;
63953;SDS011;50128;52.094;5.232;2023-04-25T08:02:42;9.21;;;2.1;;
63953;SDS011;50128;52.094;5.232;2023-04-25T08:05:54;8.2;;;1.9;;
63953;SDS011;50128;52.094;5.232;2023-04-25T08:07:30;6.6;;;1.8;;
63953;SDS011;50128;52.094;5.232;2023-04-25T08:09:07;7.5;;;2.0;;
63953;SDS011;50128;52.094;5.232;2023-04-25T08:10:43;7.5;;;2.0;;
63953;SDS011;50128;52.094;5.232;2023-04-25T08:13:55;7.8;;;1.8;;
63953;SDS011;50128;52.094;5.232;2023-04-25T08:15:31;7.2;;;1.9;;
63953;SDS011;50128;52.094;5.232;2023-04-25T08:17:07;7.4;;;1.9;;
63953;SDS011;50128;52.094;5.232;2023-04-25T08:20:21;7.1;;;1.8;;
63953;SDS011;50128;52.094;5.232;2023-04-25T08:21:57;7.9;;;2.0;;
63953;SDS011;50128;52.094;5.232;2023-04-25T08:23:33;9.0;;;2.0;;
63953;SDS011;50128;52.094;5.232;2023-04-25T08:26:45;8.71;;;1.9;;
63953;SDS011;50128;52.094;5.232;2023-04-25T08:28:21;8.71;;;1.9;;
63953;SDS011;50128;52.094;5.232;2023-04-25T08:29:57;7.4;;;2.0;;
63953;SDS011;50128;52.094;5.232;2023-04-25T08:31:33;8.81;;;2.4;;
63953;SDS011;50128;52.094;5.232;2023-04-25T08:34:46;6.9;;;1.7;;
63953;SDS011;50128;52.094;5.232;2023-04-25T08:36:22;9.21;;;2.0;;
63953;SDS011;50128;52.094;5.232;2023-04-25T08:37:58;8.81;;;2.31;;
63953;SDS011;50128;52.094;5.232;2023-04-25T08:41:10;8.1;;;1.7;;
63953;SDS011;50128;52.094;5.232;2023-04-25T08:42:47;10.5;;;1.8;;
63953;SDS011;50128;52.094;5.232;2023-04-25T08:44:25;7.8;;;1.7;;
63953;SDS011;50128;52.094;5.232;2023-04-25T08:47:38;8.2;;;2.21;;
63953;SDS011;50128;52.094;5.232;2023-04-25T08:49:15;7.3;;;1.6;;
63953;SDS011;50128;52.094;5.232;2023-04-25T08:50:54;7.3;;;1.9;;
63953;SDS011;50128;52.094;5.232;2023-04-25T08:52:32;7.1;;;1.7;;
63953;SDS011;50128;52.094;5.232;2023-04-25T08:55:50;6.2;;;1.6;;
63953;SDS011;50128;52.094;5.232;2023-04-25T08:57:29;9.5;;;2.1;;
63953;SDS011;50128;52.094;5.232;2023-04-25T08:59:06;8.5;;;1.8;;
63953;SDS011;50128;52.094;5.232;2023-04-25T09:02:21;7.5;;;2.21;;
63953;SDS011;50128;52.094;5.232;2023-04-25T09:03:57;6.2;;;1.7;;
63953;SDS011;50128;52.094;5.232;2023-04-25T09:05:33;5.6;;;1.6;;
63953;SDS011;50128;52.094;5.232;2023-04-25T09:07:10;4.91;;;1.5;;
63953;SDS011;50128;52.094;5.232;2023-04-25T09:10:26;6.9;;;1.4;;
63953;SDS011;50128;52.094;5.232;2023-04-25T09:13:40;6.4;;;1.5;;
63953;SDS011;50128;52.094;5.232;2023-04-25T09:17:00;10.4;;;2.21;;
63953;SDS011;50128;52.094;5.232;2023-04-25T09:18:37;4.7;;;1.4;;
63953;SDS011;50128;52.094;5.232;2023-04-25T09:20:13;5.2;;;1.5;;
63953;SDS011;50128;52.094;5.232;2023-04-25T09:21:50;6.5;;;1.4;;
63953;SDS011;50128;52.094;5.232;2023-04-25T09:25:03;5.9;;;1.3;;
63953;SDS011;50128;52.094;5.232;2023-04-25T09:26:44;4.5;;;1.11;;
63953;SDS011;50128;52.094;5.232;2023-04-25T09:28:23;4.7;;;1.3;;
63953;SDS011;50128;52.094;5.232;2023-04-25T09:31:36;4.3;;;1.2;;
63953;SDS011;50128;52.094;5.232;2023-04-25T09:33:12;4.1;;;1.3;;
63953;SDS011;50128;52.094;5.232;2023-04-25T09:34:50;6.6;;;1.2;;
63953;SDS011;50128;52.094;5.232;2023-04-25T09:36:29;6.2;;;1.6;;
63953;SDS011;50128;52.094;5.232;2023-04-25T09:39:44;6.2;;;1.6;;
63953;SDS011;50128;52.094;5.232;2023-04-25T09:41:22;4.41;;;1.4;;
63953;SDS011;50128;52.094;5.232;2023-04-25T09:42:59;4.2;;;1.2;;
63953;SDS011;50128;52.094;5.232;2023-04-25T09:46:12;7.2;;;1.5;;
63953;SDS011;50128;52.094;5.232;2023-04-25T09:47:48;7.7;;;1.7;;
63953;SDS011;50128;52.094;5.232;2023-04-25T09:49:25;6.3;;;2.0;;
63953;SDS011;50128;52.094;5.232;2023-04-25T09:51:03;7.1;;;1.6;;
63953;SDS011;50128;52.094;5.232;2023-04-25T09:54:19;5.5;;;1.5;;
63953;SDS011;50128;52.094;5.232;2023-04-25T09:55:55;6.0;;;1.6;;
63953;SDS011;50128;52.094;5.232;2023-04-25T10:00:46;5.11;;;1.5;;
63953;SDS011;50128;52.094;5.232;2023-04-25T10:02:24;7.7;;;1.6;;
63953;SDS011;50128;52.094;5.232;2023-04-25T10:04:03;6.4;;;1.7;;
63953;SDS011;50128;52.094;5.232;2023-04-25T10:05:42;5.6;;;1.3;;
63953;SDS011;50128;52.094;5.232;2023-04-25T10:08:57;5.7;;;1.3;;
63953;SDS011;50128;52.094;5.232;2023-04-25T10:10:34;7.1;;;1.8;;
63953;SDS011;50128;52.094;5.232;2023-04-25T10:12:12;7.1;;;1.7;;
63953;SDS011;50128;52.094;5.232;2023-04-25T10:15:26;7.9;;;1.5;;
63953;SDS011;50128;52.094;5.232;2023-04-25T10:17:03;8.1;;;2.0;;
63953;SDS011;50128;52.094;5.232;2023-04-25T10:18:39;8.4;;;1.7;;
63953;SDS011;50128;52.094;5.232;2023-04-25T10:21:52;7.2;;;1.6;;
63953;SDS011;50128;52.094;5.232;2023-04-25T10:23:33;6.7;;;1.6;;
63953;SDS011;50128;52.094;5.232;2023-04-25T10:25:11;6.9;;;1.5;;
63953;SDS011;50128;52.094;5.232;2023-04-25T10:26:48;6.9;;;1.9;;
63953;SDS011;50128;52.094;5.232;2023-04-25T10:30:02;8.6;;;1.7;;
63953;SDS011;50128;52.094;5.232;2023-04-25T10:31:44;6.8;;;1.7;;
63953;SDS011;50128;52.094;5.232;2023-04-25T10:33:29;5.6;;;1.5;;
63953;SDS011;50128;52.094;5.232;2023-04-25T10:35:11;6.0;;;1.8;;
63953;SDS011;50128;52.094;5.232;2023-04-25T10:38:27;4.2;;;1.3;;
63953;SDS011;50128;52.094;5.232;2023-04-25T10:40:07;8.0;;;1.7;;
63953;SDS011;50128;52.094;5.232;2023-04-25T10:41:45;9.31;;;2.0;;
63953;SDS011;50128;52.094;5.232;2023-04-25T10:43:33;9.31;;;2.0;;
63953;SDS011;50128;52.094;5.232;2023-04-25T10:46:51;6.7;;;1.8;;
63953;SDS011;50128;52.094;5.232;2023-04-25T10:48:27;5.6;;;1.5;;
63953;SDS011;50128;52.094;5.232;2023-04-25T10:50:05;5.6;;;1.3;;
63953;SDS011;50128;52.094;5.232;2023-04-25T10:51:43;8.1;;;1.6;;
63953;SDS011;50128;52.094;5.232;2023-04-25T10:54:59;5.3;;;1.11;;
63953;SDS011;50128;52.094;5.232;2023-04-25T10:56:40;4.91;;;1.2;;
63953;SDS011;50128;52.094;5.232;2023-04-25T10:58:20;5.6;;;1.3;;
63953;SDS011;50128;52.094;5.232;2023-04-25T11:01:41;5.0;;;1.4;;
63953;SDS011;50128;52.094;5.232;2023-04-25T11:03:20;4.8;;;1.5;;
63953;SDS011;50128;52.094;5.232;2023-04-25T11:04:57;4.8;;;1.5;;
63953;SDS011;50128;52.094;5.232;2023-04-25T11:06:40;5.5;;;1.3;;
63953;SDS011;50128;52.094;5.232;2023-04-25T11:08:36;4.61;;;1.0;;
63953;SDS011;50128;52.094;5.232;2023-04-25T11:12:03;6.1;;;1.8;;
63953;SDS011;50128;52.094;5.232;2023-04-25T11:13:40;6.6;;;1.7;;
63953;SDS011;50128;52.094;5.232;2023-04-25T11:15:16;8.5;;;2.0;;
63953;SDS011;50128;52.094;5.232;2023-04-25T11:16:52;6.3;;;1.7;;
63953;SDS011;50128;52.094;5.232;2023-04-25T11:20:05;5.11;;;1.4;;
63953;SDS011;50128;52.094;5.232;2023-04-25T11:21:43;5.4;;;1.4;;
63953;SDS011;50128;52.094;5.232;2023-04-25T11:23:19;7.2;;;1.5;;
63953;SDS011;50128;52.094;5.232;2023-04-25T11:26:31;7.0;;;1.4;;
63953;SDS011;50128;52.094;5.232;2023-04-25T11:28:07;4.7;;;1.2;;
63953;SDS011;50128;52.094;5.232;2023-04-25T11:29:43;3.8;;;1.11;;
63953;SDS011;50128;52.094;5.232;2023-04-25T11:32:57;5.6;;;1.3;;
63953;SDS011;50128;52.094;5.232;2023-04-25T11:34:34;6.6;;;1.4;;
63953;SDS011;50128;52.094;5.232;2023-04-25T11:36:10;7.1;;;1.7;;
63953;SDS011;50128;52.094;5.232;2023-04-25T11:37:46;5.4;;;1.5;;
63953;SDS011;50128;52.094;5.232;2023-04-25T11:41:00;5.3;;;1.6;;
63953;SDS011;50128;52.094;5.232;2023-04-25T11:42:37;6.0;;;1.3;;
63953;SDS011;50128;52.094;5.232;2023-04-25T11:44:15;5.2;;;1.5;;
63953;SDS011;50128;52.094;5.232;2023-04-25T11:47:29;5.11;;;1.2;;
63953;SDS011;50128;52.094;5.232;2023-04-25T11:49:05;5.2;;;1.7;;
63953;SDS011;50128;52.094;5.232;2023-04-25T11:50:41;5.3;;;1.6;;
63953;SDS011;50128;52.094;5.232;2023-04-25T11:53:53;6.0;;;1.8;;
63953;SDS011;50128;52.094;5.232;2023-04-25T11:55:29;5.7;;;1.4;;
63953;SDS011;50128;52.094;5.232;2023-04-25T11:57:05;6.1;;;1.5;;
63953;SDS011;50128;52.094;5.232;2023-04-25T11:58:59;5.11;;;1.7;;
63953;SDS011;50128;52.094;5.232;2023-04-25T12:02:23;6.1;;;1.4;;
63953;SDS011;50128;52.094;5.232;2023-04-25T12:04:17;5.5;;;1.4;;
63953;SDS011;50128;52.094;5.232;2023-04-25T12:05:54;4.3;;;1.3;;
63953;SDS011;50128;52.094;5.232;2023-04-25T12:07:38;4.7;;;1.5;;
63953;SDS011;50128;52.094;5.232;2023-04-25T12:09:15;4.2;;;1.11;;
63953;SDS011;50128;52.094;5.232;2023-04-25T12:12:32;3.8;;;1.2;;
63953;SDS011;50128;52.094;5.232;2023-04-25T12:14:08;3.8;;;1.2;;
63953;SDS011;50128;52.094;5.232;2023-04-25T12:15:44;3.3;;;1.11;;
63953;SDS011;50128;52.094;5.232;2023-04-25T12:18:58;5.0;;;1.2;;
63953;SDS011;50128;52.094;5.232;2023-04-25T12:20:34;3.6;;;1.0;;
63953;SDS011;50128;52.094;5.232;2023-04-25T12:22:18;5.0;;;1.3;;
63953;SDS011;50128;52.094;5.232;2023-04-25T12:23:56;5.0;;;1.3;;
63953;SDS011;50128;52.094;5.232;2023-04-25T12:27:11;3.6;;;1.2;;
63953;SDS011;50128;52.094;5.232;2023-04-25T12:28:51;4.41;;;1.11;;
63953;SDS011;50128;52.094;5.232;2023-04-25T12:30:27;5.2;;;1.3;;
63953;SDS011;50128;52.094;5.232;2023-04-25T12:33:39;4.2;;;1.11;;
63953;SDS011;50128;52.094;5.232;2023-04-25T12:35:15;3.4;;;1.3;;
63953;SDS011;50128;52.094;5.232;2023-04-25T12:36:52;4.91;;;1.5;;
63953;SDS011;50128;52.094;5.232;2023-04-25T12:38:29;4.7;;;1.4;;
63953;SDS011;50128;52.094;5.232;2023-04-25T12:41:44;5.11;;;1.2;;
63953;SDS011;50128;52.094;5.232;2023-04-25T12:43:21;5.3;;;1.4;;
63953;SDS011;50128;52.094;5.232;2023-04-25T12:44:57;6.8;;;1.6;;
63953;SDS011;50128;52.094;5.232;2023-04-25T12:48:09;5.0;;;1.11;;
63953;SDS011;50128;52.094;5.232;2023-04-25T12:49:46;9.6;;;1.8;;
63953;SDS011;50128;52.094;5.232;2023-04-25T12:51:22;6.2;;;1.4;;
63953;SDS011;50128;52.094;5.232;2023-04-25T12:54:34;5.5;;;1.2;;
63953;SDS011;50128;52.094;5.232;2023-04-25T12:56:10;6.0;;;1.8;;
63953;SDS011;50128;52.094;5.232;2023-04-25T12:57:46;5.9;;;1.5;;
63953;SDS011;50128;52.094;5.232;2023-04-25T12:59:22;5.7;;;1.5;;
63953;SDS011;50128;52.094;5.232;2023-04-25T13:02:35;6.2;;;1.7;;
63953;SDS011;50128;52.094;5.232;2023-04-25T13:04:11;5.4;;;1.6;;
63953;SDS011;50128;52.094;5.232;2023-04-25T13:05:47;6.3;;;1.6;;
63953;SDS011;50128;52.094;5.232;2023-04-25T13:08:59;9.4;;;1.8;;
63953;SDS011;50128;52.094;5.232;2023-04-25T13:10:36;5.11;;;1.11;;
63953;SDS011;50128;52.094;5.232;2023-04-25T13:12:12;5.2;;;1.4;;
63953;SDS011;50128;52.094;5.232;2023-04-25T13:15:25;5.7;;;1.4;;
63953;SDS011;50128;52.094;5.232;2023-04-25T13:17:02;8.5;;;2.0;;
63953;SDS011;50128;52.094;5.232;2023-04-25T13:18:38;5.3;;;1.4;;
63953;SDS011;50128;52.094;5.232;2023-04-25T13:20:14;5.8;;;1.8;;
63953;SDS011;50128;52.094;5.232;2023-04-25T13:23:28;5.9;;;1.5;;
63953;SDS011;50128;52.094;5.232;2023-04-25T13:25:05;4.2;;;1.2;;
63953;SDS011;50128;52.094;5.232;2023-04-25T13:26:43;4.7;;;1.3;;
63953;SDS011;50128;52.094;5.232;2023-04-25T13:29:55;4.8;;;1.0;;